Have a Safe July 4th! 

Flight Track Log - Related Links

Times and Time Zones

All times are in EDT time to prevent confusion due to time zone crossing. See the AAY805 flight status page for this flight to view local times or setup timezone preferences in your user account.

Time Position Orientation Groundspeed Altitude Reporting Facility
EDT Latitude Longitude Course Direction KTS MPH feet Rate Location/Type
Thu 09:41:32 AM 34.8806 -85.1631 158° South 245 282 6,600  Level Atlanta Center
Thu 09:42:32 AM 34.8100 -85.1189 153° Southeast 250 288 9,500 2,200 Climbing Atlanta Center
Thu 09:43:32 AM 34.7375 -85.0600 146° Southeast 286 329 11,000 2,350 Climbing Atlanta Center
Thu 09:44:32 AM 34.6506 -84.9806 143° Southeast 343 395 14,200 2,650 Climbing Atlanta Center
Thu 09:45:00 AM 34.4537 -84.8685 158° South  Level FlightAware Approximate
Thu 09:45:32 AM 34.5675 -84.9117 146° Southeast 358 412 16,300  Level Atlanta Center
Thu 09:46:32 AM 34.4806 -84.8350 144° Southeast 373 429 18,300 1,850 Climbing Atlanta Center
Thu 09:47:32 AM 34.3911 -84.7586 145° Southeast 378 435 20,000 1,800 Climbing Atlanta Center
Thu 09:48:32 AM 34.2892 -84.7050 157° South 389 448 21,900 1,700 Climbing Atlanta Center
Thu 09:49:32 AM 34.1831 -84.6617 161° South 402 463 23,400 1,400 Climbing Atlanta Center
Thu 09:50:32 AM 34.0831 -84.6206 161° South 409 471 24,700 1,250 Climbing Atlanta Center
Thu 09:51:32 AM 33.9664 -84.5722 161° South 428 493 25,900 1,250 Climbing Atlanta Center
Thu 09:52:32 AM 33.8517 -84.5267 162° South 433 498 27,200 1,350 Climbing Atlanta Center
Thu 09:53:32 AM 33.7183 -84.4733 162° South 447 514 28,600 1,300 Climbing Atlanta Center
Thu 09:54:32 AM 33.5975 -84.4403 167° South 452 520 29,800 750 Climbing Atlanta Center
Thu 09:55:32 AM 33.4806 -84.4347 178° South 464 534 30,100 700 Climbing Atlanta Center
Thu 09:56:32 AM 33.3533 -84.4317 179° South 464 534 31,200 1,200 Climbing Atlanta Center
Thu 09:57:32 AM 33.2114 -84.4286 179° South 464 534 32,500 1,050 Climbing Atlanta Center
Thu 09:58:32 AM 33.0819 -84.4256 179° South 464 534 33,300 800 Climbing Atlanta Center
Thu 09:59:32 AM 32.9525 -84.4250 180° South 464 534 34,100 1,050 Climbing Atlanta Center
Thu 10:00:32 AM 32.8189 -84.4244 180° South 470 541 35,400 1,150 Climbing Atlanta Center
Thu 10:01:32 AM 32.6917 -84.4164 177° South 470 541 36,400 800 Climbing Atlanta Center
Thu 10:02:32 AM 32.5600 -84.4158 180° South 470 541 37,000 300 Climbing Atlanta Center
Thu 10:03:32 AM 32.4328 -84.4128 179° South 470 541 37,000  Level Atlanta Center
Thu 10:04:32 AM 32.3056 -84.4100 179° South 465 535 37,000  Level Atlanta Center
Thu 10:05:32 AM 32.1781 -84.4069 179° South 460 529 37,000  Level Atlanta Center
Thu 10:06:40 AM 32.0364 -84.4022 178° South 438 504 37,000  Level Jacksonville Center
Thu 10:07:39 AM 31.9092 -84.4003 179° South 443 510 37,000  Level Jacksonville Center
Thu 10:08:40 AM 31.7797 -84.3981 179° South 453 521 37,000  Level Jacksonville Center
Thu 10:09:40 AM 31.6522 -84.3983 180° South 460 529 37,000  Level Jacksonville Center
Thu 10:10:39 AM 31.5253 -84.3817 174° South 460 529 37,000  Level Jacksonville Center
Thu 10:11:39 AM 31.4003 -84.3456 166° South 465 535 37,000  Level Jacksonville Center
Thu 10:12:40 AM 31.2797 -84.3097 166° South 459 528 37,000  Level Jacksonville Center
Thu 10:13:39 AM 31.1569 -84.2739 166° South 459 528 37,000  Level Jacksonville Center
Thu 10:14:40 AM 31.0339 -84.2383 166° South 454 522 37,000  Level Jacksonville Center
Thu 10:15:40 AM 30.9092 -84.2025 166° South 454 522 37,000  Level Jacksonville Center
Thu 10:16:40 AM 30.7842 -84.1669 166° South 454 522 37,000  Level Jacksonville Center
Thu 10:17:39 AM 30.6614 -84.1339 167° South 454 522 37,000  Level Jacksonville Center
Thu 10:18:40 AM 30.5531 -84.1011 165° South 446 513 37,000  Level Jacksonville Center
Thu 10:19:40 AM 30.4281 -84.0658 166° South 446 513 37,000  Level Jacksonville Center
Thu 10:20:40 AM 30.3031 -84.0306 166° South 458 527 37,000  Level Jacksonville Center
Thu 10:21:40 AM 30.1847 -83.9786 159° South 458 527 37,000  Level Jacksonville Center
Thu 10:22:40 AM 30.0661 -83.9197 157° South 458 527 37,000  Level Jacksonville Center
Thu 10:23:40 AM 29.9475 -83.8633 158° South 463 533 37,000 -150 Level Jacksonville Center
Thu 10:24:40 AM 29.8269 -83.8047 157° South 468 539 36,700 -600 Descending Jacksonville Center
Thu 10:25:40 AM 29.7103 -83.7486 157° South 468 539 35,800 -1,109 Descending Jacksonville Center
Thu 10:26:39 AM 29.5917 -83.6928 158° South 468 539 34,500 -1,850 Descending Jacksonville Center
Thu 10:27:40 AM 29.4711 -83.6319 156° South 468 539 32,100 -2,380 Descending Jacksonville Center
Thu 10:28:40 AM 29.3503 -83.5717 156° South 468 539 29,700 -2,400 Descending Jacksonville Center
Thu 10:29:40 AM 29.2294 -83.5161 158° South 474 545 27,300 -2,200 Descending Jacksonville Center
Thu 10:30:40 AM 29.1233 -83.4489 151° Southeast 460 529 25,300 -2,000 Descending Jacksonville Center
Thu 10:31:40 AM 29.0233 -83.3842 150° Southeast 431 496 23,300 -1,916 Descending Jacksonville Center
Thu 10:32:39 AM 28.9256 -83.3244 152° Southeast 413 475 21,500 -1,750 Descending Jacksonville Center
Thu 10:33:40 AM 28.8361 -83.2647 150° Southeast 391 450 19,800 -1,736 Descending Jacksonville Center
Thu 10:34:40 AM 28.7486 -83.2075 150° Southeast 375 432 18,000 -1,700 Descending Jacksonville Center
Thu 10:35:40 AM 28.6589 -83.1528 152° Southeast 369 425 16,400 -1,758 Descending Jacksonville Center
Thu 10:36:19 AM 28.6000 -83.1167 152° Southeast 354 407 15,100 -1,581 Descending Tampa TRACON
Thu 10:37:49 AM 28.4667 -83.0333 151° Southeast 337 388 13,000 -1,366 Descending Tampa TRACON
Thu 10:38:44 AM 28.4000 -83.0000 156° South 310 357 11,800 -1,531 Descending Tampa TRACON
Thu 10:39:27 AM 28.3500 -82.9550 142° Southeast 313 360 10,500 -1,400 Descending Miami Center
Thu 10:40:44 AM 28.2833 -82.8667 131° Southeast 292 336 9,000 -1,328 Descending Tampa TRACON
Thu 10:41:38 AM 28.2333 -82.8167 139° Southeast 287 330 7,600 -1,895 Descending Tampa TRACON
Thu 10:42:38 AM 28.1667 -82.7500 139° Southeast 278 320 5,400 -1,955 Descending Tampa TRACON
Thu 10:43:50 AM 28.1000 -82.7000 147° Southeast 268 308 3,300 -1,409 Descending Tampa TRACON
Thu 10:44:50 AM 28.0333 -82.6667 156° South 219 252 2,300 -929 Descending Tampa TRACON
Thu 10:46:38 AM 27.9500 -82.7000 199° South 135 155 700 -889 Descending Tampa TRACON

Login

Don't have an account? Register now (free) for customized features, flight alerts, and more!